Time;durP1;ratioP1;P1;durP2;ratioP2;P2;SDS_P1;SDS_P2;PMS_P1;PMS_P2;Temp;Humidity;BMP_temperature;BMP_pressure;BME280_temperature;BME280_humidity;BME280_pressure;Samples;Min_cycle;Max_cycle;Signal;HPM_P1;HPM_P2
2022/01/11 00:00:35;;;;;;;12.20;6.88;;;;;;;15.24;19.59;99318.09;4969446;28;20043;-80
2022/01/11 00:03:03;;;;;;;15.60;5.93;;;;;;;13.85;21.20;99318.16;4969644;28;20398;-80
2022/01/11 00:05:38;;;;;;;9.90;5.28;;;;;;;16.40;18.31;99312.63;4970689;28;20054;-80
2022/01/11 00:08:08;;;;;;;9.40;5.40;;;;;;;15.24;19.63;99315.31;4970951;28;20396;-80
2022/01/11 00:10:46;;;;;;;10.05;5.05;;;;;;;15.37;19.47;99316.13;4968025;28;20508;-80
2022/01/11 00:13:13;;;;;;;14.25;6.90;;;;;;;14.91;19.47;99324.84;4968162;28;20487;-80
2022/01/11 00:15:39;;;;;;;10.30;4.93;;;;;;;17.03;17.69;99308.03;4981410;28;20109;-80
2022/01/11 00:18:05;;;;;;;13.40;6.03;;;;;;;17.35;17.59;99314.38;4977206;28;20050;-80
2022/01/11 00:20:32;;;;;;;9.90;5.43;;;;;;;17.10;17.50;99319.31;4982135;28;20026;-80
2022/01/11 00:25:29;;;;;;;10.55;6.22;;;;;;;12.64;22.60;99328.09;4982945;28;20030;-80
2022/01/11 00:27:56;;;;;;;13.25;7.18;;;;;;;14.18;20.98;99326.50;4982142;28;20046;-81
2022/01/11 00:30:23;;;;;;;11.65;5.78;;;;;;;16.00;18.54;99319.31;4983632;28;20121;-80
2022/01/11 00:32:53;;;;;;;13.75;5.93;;;;;;;17.40;17.19;99321.63;4976828;28;20633;-80
2022/01/11 00:35:27;;;;;;;10.70;5.60;;;;;;;18.59;16.03;99332.75;4974488;28;20435;-80
2022/01/11 00:37:54;;;;;;;11.50;5.63;;;;;;;18.11;16.01;99326.91;4969412;28;20031;-80
2022/01/11 00:40:22;;;;;;;12.88;5.97;;;;;;;18.28;16.22;99326.47;4974455;28;20125;-80
2022/01/11 00:42:48;;;;;;;9.13;4.72;;;;;;;19.58;15.14;99330.97;4980706;28;20170;-80
2022/01/11 00:45:14;;;;;;;8.25;4.72;;;;;;;20.14;14.56;99328.25;4986680;28;20054;-80
2022/01/11 00:47:41;;;;;;;7.93;4.63;;;;;;;20.09;14.47;99334.13;4986973;28;20038;-80
2022/01/11 00:50:08;;;;;;;9.90;4.70;;;;;;;18.70;15.52;99334.91;4979643;28;20113;-80
2022/01/11 00:52:35;;;;;;;10.15;4.93;;;;;;;19.62;14.99;99335.44;4980222;28;20041;-80
2022/01/11 00:55:01;;;;;;;9.90;4.88;;;;;;;19.95;14.42;99331.97;4981743;28;20101;-80
2022/01/11 00:57:27;;;;;;;9.00;4.80;;;;;;;19.43;14.92;99332.72;4977265;28;20141;-80
2022/01/11 00:59:53;;;;;;;9.55;4.88;;;;;;;19.83;14.49;99332.97;4980966;28;20035;-81
2022/01/11 01:02:20;;;;;;;10.93;5.03;;;;;;;20.18;14.56;99329.09;4960509;28;20510;-80
2022/01/11 01:04:46;;;;;;;12.13;5.47;;;;;;;20.39;14.18;99330.22;4977827;28;20031;-80
2022/01/11 01:07:12;;;;;;;8.85;4.88;;;;;;;20.91;13.90;99325.63;4973998;28;20472;-80
2022/01/11 01:09:51;;;;;;;8.45;4.70;;;;;;;21.06;13.79;99328.22;4976793;28;20054;-80
2022/01/11 01:12:17;;;;;;;8.13;4.82;;;;;;;21.59;13.47;99327.88;4980230;28;20754;-80
2022/01/11 01:14:43;;;;;;;8.93;5.15;;;;;;;21.80;13.21;99333.63;4982036;28;20045;-80
2022/01/11 01:17:09;;;;;;;10.75;5.30;;;;;;;21.90;13.08;99328.16;4980339;28;20054;-80
2022/01/11 01:19:35;;;;;;;7.45;4.68;;;;;;;21.96;13.00;99331.41;4982394;28;20152;-80
2022/01/11 01:22:01;;;;;;;9.23;5.20;;;;;;;20.49;14.45;99329.53;4972197;28;20090;-80
2022/01/11 01:24:27;;;;;;;13.63;6.72;;;;;;;15.24;18.90;99347.69;4976554;28;20125;-80
2022/01/11 01:26:53;;;;;;;8.77;5.15;;;;;;;15.71;18.78;99348.91;4980023;28;20460;-80
2022/01/11 01:29:20;;;;;;;11.13;6.90;;;;;;;15.99;18.56;99348.16;4975393;28;20561;-80
2022/01/11 01:31:46;;;;;;;12.18;6.00;;;;;;;17.90;16.68;99343.88;4973978;28;20039;-80
2022/01/11 01:34:12;;;;;;;9.27;5.45;;;;;;;19.35;15.69;99339.31;4980342;28;20042;-80
2022/01/11 01:36:38;;;;;;;11.88;5.88;;;;;;;20.33;14.81;99342.06;4979927;28;20033;-80
2022/01/11 01:39:05;;;;;;;11.57;6.10;;;;;;;20.73;14.19;99336.59;4966031;28;20589;-80
2022/01/11 01:41:31;;;;;;;10.98;5.22;;;;;;;21.05;14.22;99337.75;4981910;28;20046;-80
2022/01/11 01:44:00;;;;;;;11.18;5.43;;;;;;;21.66;13.90;99327.94;4972241;28;20039;-80
2022/01/11 01:46:27;;;;;;;10.65;4.72;;;;;;;22.31;13.24;99342.00;4976606;28;20394;-80
2022/01/11 01:48:55;;;;;;;9.98;5.35;;;;;;;22.33;13.07;99337.59;4978939;28;20415;-80
2022/01/11 01:51:22;;;;;;;10.07;5.72;;;;;;;21.52;13.63;99350.97;4977775;28;20027;-80
2022/01/11 01:53:49;;;;;;;9.30;5.72;;;;;;;20.39;14.24;99355.31;4977645;28;20037;-80
2022/01/11 01:56:19;;;;;;;12.90;5.05;;;;;;;20.60;14.43;99349.19;4973844;28;20042;-80
2022/01/11 01:58:45;;;;;;;10.80;4.90;;;;;;;21.32;14.09;99344.84;4972734;28;20483;-80
2022/01/11 02:01:13;;;;;;;8.57;5.00;;;;;;;22.11;13.47;99343.44;4967958;28;20047;-80
2022/01/11 02:03:40;;;;;;;9.98;4.80;;;;;;;22.51;12.99;99340.47;4964718;28;20030;-80
2022/01/11 02:06:09;;;;;;;10.60;6.13;;;;;;;21.31;13.59;99343.22;4980929;28;20031;-80
2022/01/11 02:08:36;;;;;;;12.43;6.75;;;;;;;19.85;14.75;99350.13;4979832;28;20073;-80
2022/01/11 02:11:02;;;;;;;14.13;5.68;;;;;;;19.74;15.02;99360.28;4980477;28;20030;-80
2022/01/11 02:13:29;;;;;;;12.90;6.60;;;;;;;17.58;16.81;99361.78;4971873;28;20137;-80
2022/01/11 02:15:56;;;;;;;13.13;6.95;;;;;;;15.62;18.79;99367.59;4977679;28;20038;-80
2022/01/11 02:18:25;;;;;;;14.35;6.93;;;;;;;16.20;18.44;99366.25;4978094;28;20053;-80
2022/01/11 02:20:55;;;;;;;10.80;6.00;;;;;;;17.16;17.45;99367.03;4967953;28;20227;-80
2022/01/11 02:23:22;;;;;;;13.18;6.78;;;;;;;16.79;17.83;99365.59;4969204;28;20042;-80
2022/01/11 02:25:48;;;;;;;13.63;7.30;;;;;;;16.98;17.55;99368.53;4983722;28;20054;-80
2022/01/11 02:28:17;;;;;;;12.35;6.85;;;;;;;16.89;17.84;99365.91;4978902;28;20037;-80
2022/01/11 02:30:44;;;;;;;11.80;6.65;;;;;;;18.17;16.76;99359.63;4986399;28;20042;-80
2022/01/11 02:33:32;;;;;;;11.32;5.60;;;;;;;19.09;15.82;99364.31;4973109;28;20123;-80
2022/01/11 02:35:58;;;;;;;12.15;5.88;;;;;;;19.62;15.46;99354.13;4981198;28;20038;-80
2022/01/11 02:38:24;;;;;;;11.48;6.13;;;;;;;19.07;15.76;99367.44;4969928;28;20033;-80
2022/01/11 02:40:51;;;;;;;11.18;6.45;;;;;;;18.41;16.49;99375.22;4976486;28;20034;-80
2022/01/11 02:43:17;;;;;;;12.40;6.22;;;;;;;17.66;17.24;99372.72;4970253;28;20057;-80
2022/01/11 02:45:43;;;;;;;13.07;7.30;;;;;;;17.05;17.86;99379.81;4973846;28;20505;-80
2022/01/11 02:48:10;;;;;;;12.43;6.45;;;;;;;18.09;16.99;99376.47;4982617;28;20042;-80
2022/01/11 02:50:36;;;;;;;10.85;5.63;;;;;;;17.85;17.09;99380.31;4987986;28;20042;-80
2022/01/11 02:53:02;;;;;;;12.70;6.22;;;;;;;18.96;16.23;99374.00;4981945;28;20033;-80
2022/01/11 02:55:29;;;;;;;13.55;6.88;;;;;;;19.85;15.31;99382.75;4975208;28;20054;-80
2022/01/11 02:57:55;;;;;;;15.65;6.57;;;;;;;19.83;15.18;99379.53;4973834;28;20027;-80
2022/01/11 03:00:23;;;;;;;11.15;5.53;;;;;;;19.98;14.96;99379.38;4972864;28;20038;-80
2022/01/11 03:02:49;;;;;;;11.73;5.82;;;;;;;19.22;15.54;99383.25;4977910;28;20093;-80
2022/01/11 03:05:16;;;;;;;12.05;6.00;;;;;;;17.58;17.39;99379.25;4976580;28;20153;-80
2022/01/11 03:07:43;;;;;;;12.75;6.30;;;;;;;18.18;16.75;99389.00;4968480;28;20487;-80
2022/01/11 03:10:33;;;;;;;11.15;5.63;;;;;;;17.67;17.36;99390.16;4975744;28;20121;-80
2022/01/11 03:13:04;;;;;;;13.18;6.00;;;;;;;17.32;17.50;99389.25;4970025;28;20114;-80
2022/01/11 03:15:31;;;;;;;11.43;6.63;;;;;;;16.28;18.56;99387.50;4968012;28;20054;-81
2022/01/11 03:17:57;;;;;;;10.43;5.80;;;;;;;17.96;17.28;99395.25;4976617;28;20093;-80
2022/01/11 03:20:23;;;;;;;13.73;7.18;;;;;;;18.25;16.74;99388.38;4974052;28;20066;-80
2022/01/11 03:22:50;;;;;;;13.07;6.25;;;;;;;18.22;16.66;99409.38;4970590;28;20039;-80
2022/01/11 03:25:17;;;;;;;10.63;6.07;;;;;;;17.88;17.24;99402.59;4971703;28;20039;-80
2022/01/11 03:27:44;;;;;;;11.18;6.18;;;;;;;18.26;16.96;99404.69;4969820;28;20038;-80
2022/01/11 03:30:12;;;;;;;12.20;6.10;;;;;;;18.80;16.51;99413.03;4970878;28;20046;-80
2022/01/11 03:32:38;;;;;;;12.82;6.75;;;;;;;19.18;16.34;99412.22;4972523;28;20027;-80
2022/01/11 03:35:09;;;;;;;10.20;5.55;;;;;;;18.59;16.76;99407.84;4971573;28;20043;-80
2022/01/11 03:37:36;;;;;;;16.13;6.95;;;;;;;18.98;16.21;99410.59;4974861;28;20050;-80
2022/01/11 03:40:05;;;;;;;11.75;5.68;;;;;;;17.89;17.03;99406.19;4971632;28;20049;-80
2022/01/11 03:42:31;;;;;;;9.25;5.03;;;;;;;18.11;17.10;99413.06;4965136;28;20042;-80
2022/01/11 03:44:57;;;;;;;12.30;5.93;;;;;;;18.74;16.54;99406.13;4974265;28;20069;-80
2022/01/11 03:47:23;;;;;;;9.55;5.78;;;;;;;19.47;15.98;99414.34;4973254;28;20038;-80
2022/01/11 03:49:50;;;;;;;11.05;6.15;;;;;;;19.74;15.42;99409.66;4983495;28;20154;-80
2022/01/11 03:52:16;;;;;;;11.60;5.82;;;;;;;18.14;16.90;99420.66;4973814;28;20035;-80
2022/01/11 03:55:04;;;;;;;10.55;6.10;;;;;;;16.23;18.76;99422.94;4975859;28;20513;-80
2022/01/11 03:57:30;;;;;;;14.48;6.72;;;;;;;13.41;22.42;99429.91;4979361;28;20038;-80
2022/01/11 03:59:58;;;;;;;15.07;6.32;;;;;;;12.97;23.19;99436.66;4968832;28;20069;-80
2022/01/11 04:02:25;;;;;;;13.30;6.15;;;;;;;13.40;22.42;99432.97;4971851;28;20042;-80
2022/01/11 04:04:53;;;;;;;16.55;7.40;;;;;;;10.83;25.43;99448.97;4972405;28;20368;-80
2022/01/11 04:07:23;;;;;;;11.55;6.30;;;;;;;13.44;22.62;99439.47;4966612;28;20118;-80
2022/01/11 04:09:50;;;;;;;13.18;7.00;;;;;;;14.65;21.00;99443.16;4971310;28;20541;-80
2022/01/11 04:12:17;;;;;;;12.95;6.55;;;;;;;12.66;22.98;99454.50;4964508;28;20145;-80
2022/01/11 04:14:44;;;;;;;13.10;7.68;;;;;;;12.02;23.99;99465.25;4971657;28;20042;-80
2022/01/11 04:17:10;;;;;;;12.77;6.85;;;;;;;11.75;24.27;99460.00;4976033;28;20535;-80
2022/01/11 04:19:37;;;;;;;13.32;7.10;;;;;;;11.12;24.81;99463.06;4979204;28;20038;-80
2022/01/11 04:22:04;;;;;;;15.27;7.97;;;;;;;9.74;26.99;99469.25;4982053;28;20544;-80
2022/01/11 04:24:30;;;;;;;18.85;8.73;;;;;;;9.51;27.17;99467.50;4985743;28;20390;-80
2022/01/11 04:26:56;;;;;;;15.27;8.25;;;;;;;10.53;26.05;99467.00;4984822;28;20066;-80
2022/01/11 04:29:23;;;;;;;13.80;7.18;;;;;;;10.26;25.53;99459.66;4976249;28;20027;-80
2022/01/11 04:31:49;;;;;;;13.70;7.35;;;;;;;9.38;26.72;99465.53;4977749;28;20073;-80
2022/01/11 04:34:16;;;;;;;13.10;7.30;;;;;;;10.25;25.50;99465.44;4979164;28;22050;-80
2022/01/11 04:36:42;;;;;;;13.40;7.18;;;;;;;11.52;24.16;99464.75;4978641;28;20563;-80
2022/01/11 04:39:10;;;;;;;13.05;7.13;;;;;;;12.25;23.09;99472.28;4975371;28;20090;-80
2022/01/11 04:41:37;;;;;;;11.52;6.53;;;;;;;11.85;23.20;99469.91;4971932;28;20382;-80
2022/01/11 04:44:04;;;;;;;13.10;7.13;;;;;;;12.22;22.72;99469.38;4977662;28;20035;-80
2022/01/11 04:46:30;;;;;;;11.52;6.60;;;;;;;13.12;21.40;99466.47;4978273;28;20498;-80
2022/01/11 04:48:58;;;;;;;13.25;6.82;;;;;;;11.57;22.90;99475.63;4983003;28;20034;-80
2022/01/11 04:51:25;;;;;;;13.13;7.20;;;;;;;12.69;21.83;99475.88;4983472;28;20038;-80
2022/01/11 04:53:51;;;;;;;12.30;7.35;;;;;;;12.35;22.30;99483.00;4979103;28;20387;-80
2022/01/11 04:56:17;;;;;;;12.90;7.00;;;;;;;14.03;20.34;99481.72;4978615;28;20039;-80
2022/01/11 04:58:44;;;;;;;10.57;6.18;;;;;;;13.63;20.42;99484.00;4978586;28;20045;-80
2022/01/11 05:01:10;;;;;;;10.40;5.78;;;;;;;13.55;20.52;99490.38;4987303;28;20061;-80
2022/01/11 05:03:36;;;;;;;10.95;6.45;;;;;;;12.98;21.26;99492.56;4979074;28;20034;-80
2022/01/11 05:06:04;;;;;;;12.52;6.47;;;;;;;12.85;21.54;99497.13;4975808;28;20368;-80
2022/01/11 05:08:30;;;;;;;12.40;6.60;;;;;;;11.36;23.20;99504.78;4973362;28;20054;-80
2022/01/11 05:10:57;;;;;;;12.52;6.82;;;;;;;12.38;22.45;99498.06;4978429;28;20452;-80
2022/01/11 05:13:23;;;;;;;14.35;5.93;;;;;;;12.32;22.14;99513.13;4971485;28;20041;-80
2022/01/11 05:15:49;;;;;;;10.75;6.68;;;;;;;14.60;19.91;99495.88;4975794;28;20034;-80
2022/01/11 05:18:16;;;;;;;13.80;7.38;;;;;;;13.96;19.95;99498.81;4975103;28;20039;-80
2022/01/11 05:20:43;;;;;;;13.52;6.95;;;;;;;11.69;22.43;99508.84;4982727;28;20043;-80
2022/01/11 05:23:10;;;;;;;12.90;6.93;;;;;;;11.57;22.93;99514.13;4967723;28;20365;-80
2022/01/11 05:25:37;;;;;;;13.18;7.65;;;;;;;11.36;23.02;99512.22;4968846;28;20043;-80
2022/01/11 05:28:03;;;;;;;12.52;6.60;;;;;;;13.91;20.34;99501.75;4965330;28;20097;-80
2022/01/11 05:30:30;;;;;;;14.93;7.47;;;;;;;11.61;22.40;99515.09;4964218;28;20475;-80
2022/01/11 05:32:56;;;;;;;12.93;7.32;;;;;;;12.34;22.01;99508.09;4962974;28;20038;-80
2022/01/11 05:35:24;;;;;;;11.48;6.35;;;;;;;13.20;20.71;99508.97;4961983;28;21329;-80
2022/01/11 05:37:51;;;;;;;12.68;7.03;;;;;;;12.85;21.11;99510.09;4967679;28;20759;-80
2022/01/11 05:40:19;;;;;;;12.65;6.70;;;;;;;11.43;22.91;99521.63;4962945;28;20422;-80
2022/01/11 05:42:48;;;;;;;13.23;7.15;;;;;;;10.30;24.39;99532.00;4977006;28;20034;-80
2022/01/11 05:45:15;;;;;;;15.07;7.53;;;;;;;8.98;26.09;99532.03;4972877;28;20114;-80
2022/01/11 05:47:41;;;;;;;15.20;7.45;;;;;;;9.66;25.97;99537.69;4979589;28;20177;-80
2022/01/11 05:50:10;;;;;;;16.02;7.57;;;;;;;10.23;24.71;99539.03;4979148;28;20022;-80
2022/01/11 05:52:38;;;;;;;16.80;8.13;;;;;;;10.53;24.12;99537.56;4978421;28;20034;-80
2022/01/11 05:55:07;;;;;;;13.40;6.72;;;;;;;12.37;22.14;99543.22;4976062;28;20085;-80
2022/01/11 05:57:34;;;;;;;16.10;6.70;;;;;;;11.64;22.74;99543.91;4970670;28;20030;-80
2022/01/11 06:00:01;;;;;;;16.58;8.07;;;;;;;12.16;21.57;99551.28;4982294;28;20034;-80
2022/01/11 06:02:27;;;;;;;15.65;7.47;;;;;;;12.61;21.34;99553.81;4968131;28;20486;-80
2022/01/11 06:04:53;;;;;;;16.40;8.40;;;;;;;11.39;22.43;99559.13;4976293;28;20034;-80
2022/01/11 06:07:19;;;;;;;12.50;6.60;;;;;;;9.80;24.85;99554.16;4972770;28;20451;-80
2022/01/11 06:09:45;;;;;;;15.38;7.68;;;;;;;10.21;24.07;99566.78;4983973;28;20030;-80
2022/01/11 06:12:11;;;;;;;15.65;7.82;;;;;;;10.38;23.91;99566.97;4979397;28;20074;-80
2022/01/11 06:14:37;;;;;;;20.60;7.82;;;;;;;10.98;22.98;99575.78;4972291;28;20074;-80
2022/01/11 06:17:03;;;;;;;13.80;7.70;;;;;;;10.35;23.60;99573.09;4974290;28;20047;-80
2022/01/11 06:19:31;;;;;;;12.43;6.15;;;;;;;11.08;22.87;99578.28;4974862;28;20555;-80
2022/01/11 06:21:57;;;;;;;15.00;6.95;;;;;;;10.23;24.17;99586.50;4972848;28;20027;-80
2022/01/11 06:24:24;;;;;;;14.57;7.00;;;;;;;10.39;23.76;99592.47;4974519;28;20442;-80
2022/01/11 06:26:50;;;;;;;11.25;6.35;;;;;;;10.88;23.38;99588.94;4967145;28;20039;-80
2022/01/11 06:29:16;;;;;;;14.05;6.70;;;;;;;11.77;22.01;99598.06;4974145;28;20035;-80
2022/01/11 06:31:42;;;;;;;13.75;6.43;;;;;;;12.94;20.56;99596.34;4973539;28;20117;-80
2022/01/11 06:34:08;;;;;;;13.68;7.03;;;;;;;12.99;20.47;99604.47;4964731;28;20036;-80
2022/01/11 06:36:34;;;;;;;13.07;7.22;;;;;;;15.03;18.45;99599.47;4977890;28;20022;-79
2022/01/11 06:39:01;;;;;;;12.27;6.25;;;;;;;15.49;17.44;99603.19;4971198;28;20385;-79
2022/01/11 06:41:28;;;;;;;14.50;6.88;;;;;;;14.73;18.18;99611.69;4971809;28;20031;-79
2022/01/11 06:43:54;;;;;;;12.10;6.22;;;;;;;15.52;17.54;99610.81;4972052;28;20034;-79
2022/01/11 06:46:23;;;;;;;13.57;6.55;;;;;;;16.56;16.24;99614.88;4967289;28;20510;-79
2022/01/11 06:48:51;;;;;;;14.65;6.47;;;;;;;17.35;15.72;99607.81;4968605;28;20035;-80
2022/01/11 06:51:18;;;;;;;9.80;5.95;;;;;;;17.64;15.27;99613.09;4967787;28;20031;-80
2022/01/11 06:53:45;;;;;;;13.88;6.97;;;;;;;18.08;14.90;99606.38;4969293;28;20434;-80
2022/01/11 06:56:11;;;;;;;13.45;6.22;;;;;;;18.48;14.58;99603.44;4966064;28;20499;-80
2022/01/11 06:58:38;;;;;;;11.85;5.28;;;;;;;18.04;14.90;99619.34;4970480;28;20035;-80
2022/01/11 07:01:05;;;;;;;15.82;7.50;;;;;;;16.12;16.52;99633.19;4972711;28;20542;-81
2022/01/11 07:03:31;;;;;;;12.85;5.63;;;;;;;15.34;17.50;99645.28;4973960;28;20035;-81
2022/01/11 07:05:57;;;;;;;10.60;5.57;;;;;;;16.01;17.04;99643.06;4969498;28;20391;-78
2022/01/11 07:08:24;;;;;;;12.07;6.10;;;;;;;16.23;16.83;99652.94;4968394;28;20047;-77
2022/01/11 07:10:50;;;;;;;11.98;5.75;;;;;;;16.48;16.67;99655.38;4973578;28;20027;-79
2022/01/11 07:13:17;;;;;;;14.15;6.55;;;;;;;17.14;16.13;99652.41;4969447;28;20038;-80
2022/01/11 07:15:43;;;;;;;12.93;6.00;;;;;;;17.44;15.82;99659.28;4971450;28;20060;-79
2022/01/11 07:18:10;;;;;;;13.23;6.18;;;;;;;17.04;16.29;99658.41;4952869;28;20103;-79
2022/01/11 07:20:38;;;;;;;10.40;5.53;;;;;;;16.97;16.40;99664.56;4946438;28;20028;-79
2022/01/11 07:23:04;;;;;;;13.90;6.30;;;;;;;17.09;16.34;99666.50;4950341;28;20039;-79
2022/01/11 07:25:32;;;;;;;12.30;6.07;;;;;;;17.43;16.31;99665.19;4944435;28;20079;-78
2022/01/11 07:27:59;;;;;;;11.93;5.60;;;;;;;16.14;17.26;99664.13;4950276;28;20537;-79
2022/01/11 07:30:25;;;;;;;12.15;6.10;;;;;;;16.18;17.31;99670.59;4951568;29;20032;-79
2022/01/11 07:32:52;;;;;;;12.55;5.82;;;;;;;17.21;16.58;99669.28;4955372;28;20037;-79
2022/01/11 07:35:18;;;;;;;10.00;5.30;;;;;;;16.65;17.14;99671.03;4955894;28;20031;-79
2022/01/11 07:37:45;;;;;;;11.35;5.75;;;;;;;17.03;16.72;99668.72;4955846;28;20035;-79
2022/01/11 07:40:12;;;;;;;11.40;5.97;;;;;;;17.87;15.98;99669.69;4951772;28;20402;-79
2022/01/11 07:42:38;;;;;;;14.75;7.05;;;;;;;18.25;15.85;99669.94;4947652;28;20040;-79
2022/01/11 07:45:04;;;;;;;11.35;6.13;;;;;;;18.91;15.47;99667.31;4953453;28;20090;-79
2022/01/11 07:47:30;;;;;;;10.68;5.65;;;;;;;19.63;14.59;99670.53;4948963;28;20062;-78
2022/01/11 07:49:57;;;;;;;13.90;6.65;;;;;;;19.56;14.55;99668.41;4949318;28;20035;-78
2022/01/11 07:52:23;;;;;;;12.20;5.15;;;;;;;20.13;14.18;99673.19;4948090;28;20055;-80
2022/01/11 07:54:49;;;;;;;9.80;5.30;;;;;;;20.06;14.29;99677.81;4949250;28;20059;-79
2022/01/11 07:57:15;;;;;;;15.45;7.63;;;;;;;19.20;14.72;99677.13;4948965;28;20031;-79
2022/01/11 07:59:41;;;;;;;12.88;5.88;;;;;;;19.07;15.43;99684.78;4946088;28;20578;-79
2022/01/11 08:02:08;;;;;;;12.48;6.72;;;;;;;19.65;15.01;99685.72;4946183;28;20114;-79
2022/01/11 08:04:34;;;;;;;12.25;6.85;;;;;;;20.32;14.46;99677.94;4951307;28;20511;-79
2022/01/11 08:07:03;;;;;;;15.93;7.70;;;;;;;20.67;13.82;99686.97;4949998;28;20091;-79
2022/01/11 08:09:29;;;;;;;14.70;8.30;;;;;;;20.94;13.83;99679.44;4948603;28;20035;-79
2022/01/11 08:11:58;;;;;;;12.15;7.05;;;;;;;21.14;13.79;99678.19;4948372;29;20088;-79
2022/01/11 08:14:25;;;;;;;17.88;7.70;;;;;;;21.03;13.60;99685.56;4951529;29;20547;-78
2022/01/11 08:16:51;;;;;;;14.82;8.13;;;;;;;19.72;14.85;99694.25;4958293;28;20043;-79
2022/01/11 08:19:20;;;;;;;13.50;6.68;;;;;;;18.74;15.54;99684.34;4974242;28;20077;-79
2022/01/11 08:21:47;;;;;;;12.27;6.28;;;;;;;17.33;16.91;99697.00;4967822;28;20038;-79
2022/01/11 08:24:13;;;;;;;13.50;6.80;;;;;;;16.40;17.44;99694.31;4974122;28;20023;-79
2022/01/11 08:26:39;;;;;;;8.07;4.50;;;;;;;14.10;20.04;99695.47;4972186;28;20042;-79
2022/01/11 08:29:05;;;;;;;13.10;5.53;;;;;;;13.82;21.22;99694.22;4972025;28;20050;-79
2022/01/11 08:31:31;;;;;;;11.82;6.03;;;;;;;15.01;19.35;99693.03;4971209;28;20030;-79
2022/01/11 08:33:57;;;;;;;15.77;6.75;;;;;;;15.37;19.44;99698.00;4967796;28;20522;-79
2022/01/11 08:36:23;;;;;;;8.80;5.68;;;;;;;16.48;18.16;99696.16;4974905;28;20050;-79
2022/01/11 08:38:49;;;;;;;11.07;5.18;;;;;;;16.74;17.94;99695.88;4970837;28;20027;-79
2022/01/11 08:41:19;;;;;;;13.05;8.18;;;;;;;17.73;16.68;99697.88;4971147;28;20097;-79
2022/01/11 08:43:45;;;;;;;13.68;6.43;;;;;;;15.71;18.38;99705.25;4969603;28;20048;-79
2022/01/11 08:46:14;;;;;;;10.45;5.18;;;;;;;16.83;17.70;99702.94;4972666;28;20034;-79
2022/01/11 08:48:40;;;;;;;9.98;5.15;;;;;;;17.85;17.20;99706.16;4977172;28;20042;-79
2022/01/11 08:51:06;;;;;;;11.63;6.30;;;;;;;16.45;17.69;99702.41;4975739;28;20038;-79
2022/01/11 08:53:32;;;;;;;9.55;4.65;;;;;;;15.92;18.49;99705.25;4968305;28;20030;-79
2022/01/11 08:55:58;;;;;;;8.60;5.10;;;;;;;16.79;18.05;99717.84;4969637;28;20479;-78
2022/01/11 08:58:24;;;;;;;10.57;5.28;;;;;;;15.10;19.41;99712.31;4974842;28;20486;-79
2022/01/11 09:00:50;;;;;;;9.05;4.82;;;;;;;15.86;18.76;99712.94;4966908;28;20561;-79
2022/01/11 09:03:17;;;;;;;9.48;4.65;;;;;;;17.90;17.10;99714.22;4969216;28;20050;-79
2022/01/11 09:05:43;;;;;;;8.05;4.25;;;;;;;18.12;16.22;99695.38;4970838;28;20405;-79
2022/01/11 09:08:11;;;;;;;9.73;4.78;;;;;;;18.75;15.83;99693.53;4967507;28;20039;-78
2022/01/11 09:10:37;;;;;;;8.45;4.20;;;;;;;18.14;16.45;99699.44;4968685;28;20077;-79
2022/01/11 09:13:03;;;;;;;7.10;4.28;;;;;;;18.82;16.15;99702.03;4975763;28;20030;-79
2022/01/11 09:15:29;;;;;;;7.43;4.13;;;;;;;17.26;16.87;99705.94;4987011;28;20447;-79
2022/01/11 09:17:56;;;;;;;7.60;3.92;;;;;;;18.61;16.32;99702.31;4965540;28;20039;-79
2022/01/11 09:20:22;;;;;;;7.78;4.18;;;;;;;16.75;17.61;99708.59;4964461;28;20525;-79
2022/01/11 09:22:48;;;;;;;6.43;3.67;;;;;;;18.09;16.60;99708.03;4966313;28;20035;-79
2022/01/11 09:25:15;;;;;;;9.43;3.75;;;;;;;18.00;16.54;99712.94;4969221;28;20038;-81
2022/01/11 09:27:42;;;;;;;7.78;3.88;;;;;;;16.89;17.30;99707.13;4969708;28;20047;-80
2022/01/11 09:30:11;;;;;;;10.02;4.43;;;;;;;15.31;19.04;99713.16;4969234;28;20030;-81
2022/01/11 09:32:38;;;;;;;11.35;4.18;;;;;;;16.85;18.01;99710.94;4971806;28;20439;-80
2022/01/11 09:35:06;;;;;;;9.15;4.30;;;;;;;16.70;17.44;99712.41;4975096;28;20031;-80
2022/01/11 09:37:32;;;;;;;7.60;4.38;;;;;;;16.84;17.59;99712.06;4982694;28;20065;-79
2022/01/11 09:39:59;;;;;;;4.65;3.05;;;;;;;18.65;16.71;99707.97;4963273;28;20405;-79
2022/01/11 09:42:26;;;;;;;8.50;4.10;;;;;;;17.72;16.33;99715.69;4974053;28;20031;-79
2022/01/11 09:44:53;;;;;;;6.47;3.15;;;;;;;18.29;16.57;99718.13;4971102;28;20031;-80
2022/01/11 09:47:19;;;;;;;6.93;4.00;;;;;;;15.84;18.59;99713.31;4971356;28;20031;-79
2022/01/11 09:49:45;;;;;;;9.95;4.85;;;;;;;12.75;21.84;99723.41;4969636;28;20041;-79
2022/01/11 09:52:13;;;;;;;8.23;4.80;;;;;;;13.39;21.32;99715.47;4963540;28;20027;-79
2022/01/11 09:54:42;;;;;;;6.40;4.00;;;;;;;14.55;20.24;99706.91;4973386;28;20443;-79
2022/01/11 09:57:09;;;;;;;7.90;3.92;;;;;;;16.16;18.87;99705.31;4968136;28;20031;-78
2022/01/11 09:59:35;;;;;;;5.70;3.60;;;;;;;16.32;18.38;99700.75;4970980;28;20038;-80
2022/01/11 10:02:03;;;;;;;5.85;3.20;;;;;;;15.16;19.34;99692.47;4971102;28;20035;-79
2022/01/11 10:04:32;;;;;;;5.95;3.25;;;;;;;16.82;18.35;99706.06;4972617;28;20045;-78
2022/01/11 10:07:00;;;;;;;10.55;4.30;;;;;;;16.84;17.23;99709.28;4970731;28;20101;-79
2022/01/11 10:09:29;;;;;;;3.97;2.95;;;;;;;15.28;18.73;99700.03;4970549;28;20065;-79
2022/01/11 10:12:00;;;;;;;4.55;2.55;;;;;;;17.13;17.79;99698.75;4976030;28;20117;-78
2022/01/11 10:14:29;;;;;;;;;;;;;;;17.41;16.72;99701.59;4973812;28;20118;-79
2022/01/11 10:17:18;;;;;;;6.70;3.42;;;;;;;13.80;20.70;99711.09;4971604;28;19933;-81
2022/01/11 10:19:47;;;;;;;6.13;3.10;;;;;;;14.71;20.09;99710.75;4972818;28;20030;-80
2022/01/11 10:22:16;;;;;;;8.77;4.47;;;;;;;13.02;21.72;99714.09;4971674;28;20379;-80
2022/01/11 10:24:45;;;;;;;9.07;5.05;;;;;;;12.90;22.36;99719.41;4967110;28;20034;-80
2022/01/11 10:27:15;;;;;;;10.80;5.38;;;;;;;14.29;20.76;99709.72;4971662;28;20039;-80
2022/01/11 10:29:44;;;;;;;6.55;4.15;;;;;;;14.08;21.23;99711.56;4963606;28;20435;-80
2022/01/11 10:32:24;;;;;;;11.25;4.60;;;;;;;13.90;20.86;99717.44;4971450;28;20049;-80
2022/01/11 10:34:53;;;;;;;7.25;3.95;;;;;;;15.03;19.80;99715.63;4972102;28;20035;-80
2022/01/11 10:37:33;;;;;;;9.95;4.47;;;;;;;17.81;17.23;99712.75;4973550;28;20398;-79
2022/01/11 10:40:09;;;;;;;6.07;3.38;;;;;;;19.56;15.71;99709.41;4969325;28;20065;-79
2022/01/11 10:42:39;;;;;;;7.47;4.10;;;;;;;19.42;15.25;99712.69;4974370;28;20023;-80
2022/01/11 10:45:13;;;;;;;8.27;3.77;;;;;;;16.15;17.97;99723.13;4967195;28;20045;-80
2022/01/11 10:47:43;;;;;;;9.32;4.20;;;;;;;17.03;17.61;99717.84;4971740;28;20031;-79
2022/01/11 10:50:09;;;;;;;8.80;4.40;;;;;;;15.60;18.84;99721.47;4973405;28;20382;-80
2022/01/11 10:52:36;;;;;;;8.45;4.53;;;;;;;16.30;18.13;99720.50;4973329;28;20830;-80
2022/01/11 10:55:06;;;;;;;9.88;4.88;;;;;;;15.62;18.75;99726.66;4971353;28;20042;-79
2022/01/11 10:57:39;;;;;;;9.80;4.75;;;;;;;14.80;19.81;99719.81;4971266;28;20042;-79
2022/01/11 11:00:11;;;;;;;10.35;5.32;;;;;;;15.29;19.30;99721.00;4962442;28;20491;-80
2022/01/11 11:02:40;;;;;;;6.25;4.65;;;;;;;16.10;18.39;99709.47;4969989;28;20050;-79
2022/01/11 11:05:34;;;;;;;6.72;3.47;;;;;;;17.91;17.00;99712.28;4972042;28;20435;-80
2022/01/11 11:08:05;;;;;;;8.85;4.32;;;;;;;18.04;16.60;99713.81;4970889;28;20094;-80
2022/01/11 11:10:33;;;;;;;7.65;4.03;;;;;;;18.83;16.48;99712.84;4965936;28;20487;-80
2022/01/11 11:13:00;;;;;;;8.30;4.13;;;;;;;18.37;15.93;99708.81;4966686;28;20026;-79
2022/01/11 11:15:32;;;;;;;10.00;5.47;;;;;;;16.61;17.99;99711.72;4967697;28;20047;-80
2022/01/11 11:17:58;;;;;;;9.25;4.50;;;;;;;17.95;16.88;99710.41;4975649;28;20042;-80
2022/01/11 11:20:25;;;;;;;13.45;5.05;;;;;;;18.89;15.93;99708.59;4971018;28;20039;-79
2022/01/11 11:22:52;;;;;;;9.18;4.75;;;;;;;20.08;15.00;99706.94;4964697;28;20039;-79
2022/01/11 11:25:18;;;;;;;6.53;3.72;;;;;;;20.53;14.40;99706.25;4965193;28;20100;-79
2022/01/11 11:27:45;;;;;;;7.68;4.07;;;;;;;21.00;14.31;99709.47;4965155;28;20038;-79
2022/01/11 11:30:11;;;;;;;8.73;4.45;;;;;;;21.15;13.72;99705.75;4967103;28;20395;-79
2022/01/11 11:32:39;;;;;;;7.30;3.85;;;;;;;21.17;14.04;99696.97;4966048;28;20087;-79